^^
Meteo Knjazevac Station Historical Data
Daily Summary for April 18, 2021 Units:  Both    English   Metric
Daily Weekly Monthly Yearly Custom
  High: Low: Average:
Temperature: 62.4 °F /  16.9 °C 55.4 °F /  13 °C 58.7 °F /  14.8 °C
Dew Point: 61 °F /  16.1 °C 54.8 °F /  12.7 °C 57.8 °F /  14.3 °C
Humidity: 98% 95% 97%
Wind Speed: 2mph /  3.2km/h - 0.5mph /  0.8km/h
Wind Gust: 5mph /  8km/h - -
Wind- - WSW
Pressure: 30.15 in /  1020.9 hPa 30.13 in /  1020.2 hPa -
Precipitation: 0.00 in /  0 mm    
Historical Graphs
 
 
Tabular Data for April 18, 2021
Time Temperature Dew Point Pressure Wind Wind Speed Wind Gust Humidity Rainfall Rate (Hourly) solar Conditions
00:00 62.4 °F /  16.9 °C 61 °F /  16.1 °C 30.15in /  1020.9hPa East 1mph /  1.6km/h 5mph /  8km/h 95% 0.00in /  0mm 0 W/m2
00:10 62 °F /  16.7 °C 60.6 °F /  15.9 °C 30.14in /  1020.5hPa Calm   5mph /  8km/h 95% 0.00in /  0mm 0 W/m2
00:20 61.5 °F /  16.4 °C 60 °F /  15.6 °C 30.14in /  1020.5hPa Calm   3mph /  4.8km/h 95% 0.00in /  0mm 0 W/m2
00:30 61.3 °F /  16.3 °C 60.2 °F /  15.7 °C 30.14in /  1020.5hPa NNW 1mph /  1.6km/h 2mph /  3.2km/h 96% 0.00in /  0mm 0 W/m2
00:40 61.2 °F /  16.2 °C 60 °F /  15.6 °C 30.15in /  1020.9hPa NW 1mph /  1.6km/h 1mph /  1.6km/h 96% 0.00in /  0mm 0 W/m2
00:50 60.8 °F /  16 °C 59.6 °F /  15.3 °C 30.15in /  1020.9hPa Calm   2mph /  3.2km/h 96% 0.00in /  0mm 0 W/m2
01:00 60.3 °F /  15.7 °C 58.8 °F /  14.9 °C 30.14in /  1020.5hPa SW 1mph /  1.6km/h 2mph /  3.2km/h 95% 0.00in /  0mm 0 W/m2
01:10 59.9 °F /  15.5 °C 58.8 °F /  14.9 °C 30.14in /  1020.5hPa Calm   1mph /  1.6km/h 96% 0.00in /  0mm 0 W/m2
01:20 59.7 °F /  15.4 °C 58.6 °F /  14.8 °C 30.14in /  1020.5hPa Calm     96% 0.00in /  0mm 0 W/m2
01:30 59.5 °F /  15.3 °C 58.4 °F /  14.7 °C 30.14in /  1020.5hPa Calm   1mph /  1.6km/h 96% 0.00in /  0mm 0 W/m2
01:40 59.4 °F /  15.2 °C 58.2 °F /  14.6 °C 30.14in /  1020.5hPa Calm   1mph /  1.6km/h 96% 0.00in /  0mm 0 W/m2
01:50 59 °F /  15 °C 57.9 °F /  14.4 °C 30.14in /  1020.5hPa SW 1mph /  1.6km/h 2mph /  3.2km/h 96% 0.00in /  0mm 0 W/m2
02:00 58.8 °F /  14.9 °C 57.7 °F /  14.3 °C 30.14in /  1020.5hPa WSW 1mph /  1.6km/h 2mph /  3.2km/h 96% 0.00in /  0mm 0 W/m2
02:10 58.6 °F /  14.8 °C 58.1 °F /  14.5 °C 30.14in /  1020.5hPa ENE 1mph /  1.6km/h 3mph /  4.8km/h 98% 0.00in /  0mm 0 W/m2
02:20 58.5 °F /  14.7 °C 57.9 °F /  14.4 °C 30.14in /  1020.5hPa WNW 1mph /  1.6km/h 2mph /  3.2km/h 98% 0.00in /  0mm 0 W/m2
02:30 58.3 °F /  14.6 °C 57.7 °F /  14.3 °C 30.13in /  1020.2hPa Calm   2mph /  3.2km/h 98% 0.00in /  0mm 0 W/m2
02:40 57.9 °F /  14.4 °C 57.4 °F /  14.1 °C 30.13in /  1020.2hPa NW 1mph /  1.6km/h 2mph /  3.2km/h 98% 0.00in /  0mm 0 W/m2
02:50 57.6 °F /  14.2 °C 57 °F /  13.9 °C 30.13in /  1020.2hPa Calm   2mph /  3.2km/h 98% 0.00in /  0mm 0 W/m2
03:00 57.4 °F /  14.1 °C 56.8 °F /  13.8 °C 30.14in /  1020.5hPa NW 1mph /  1.6km/h 2mph /  3.2km/h 98% 0.00in /  0mm 0 W/m2
03:10 57.2 °F /  14 °C 56.6 °F /  13.7 °C 30.13in /  1020.2hPa North 1mph /  1.6km/h 3mph /  4.8km/h 98% 0.00in /  0mm 0 W/m2
03:20 57 °F /  13.9 °C 56.4 °F /  13.6 °C 30.13in /  1020.2hPa Calm   3mph /  4.8km/h 98% 0.00in /  0mm 0 W/m2
03:30 56.7 °F /  13.7 °C 56.1 °F /  13.4 °C 30.13in /  1020.2hPa Calm   2mph /  3.2km/h 98% 0.00in /  0mm 0 W/m2
03:40 56.5 °F /  13.6 °C 55.9 °F /  13.3 °C 30.13in /  1020.2hPa WSW 2mph /  3.2km/h 3mph /  4.8km/h 98% 0.00in /  0mm 0 W/m2
03:50 56.1 °F /  13.4 °C 55.6 °F /  13.1 °C 30.13in /  1020.2hPa Calm   3mph /  4.8km/h 98% 0.00in /  0mm 0 W/m2
04:00 55.9 °F /  13.3 °C 55.4 °F /  13 °C 30.13in /  1020.2hPa Calm   2mph /  3.2km/h 98% 0.00in /  0mm 0 W/m2
04:10 55.6 °F /  13.1 °C 55 °F /  12.8 °C 30.13in /  1020.2hPa WSW 1mph /  1.6km/h 2mph /  3.2km/h 98% 0.00in /  0mm 0 W/m2
04:20 55.4 °F /  13 °C 54.8 °F /  12.7 °C 30.13in /  1020.2hPa Calm   2mph /  3.2km/h 98% 0.00in /  0mm 0 W/m2
Knjazevac, Serbia
Compliments of Weather Underground - 2 mb